Time;durP1;ratioP1;P1;durP2;ratioP2;P2;SDS_P1;SDS_P2;PMS_P1;PMS_P2;Temp;Humidity;BMP_temperature;BMP_pressure;BME280_temperature;BME280_humidity;BME280_pressure;Samples;Min_cycle;Max_cycle;Signal;HPM_P1;HPM_P2
2022/03/30 00:01:18;;;;;;;37.87;25.70;;;;;;;;;;4980870;28;20476;-78
2022/03/30 00:03:46;;;;;;;37.33;26.13;;;;;;;;;;4979242;28;20910;-78
2022/03/30 00:06:13;;;;;;;35.67;26.00;;;;;;;;;;4973134;28;20810;-80
2022/03/30 00:08:43;;;;;;;39.60;25.27;;;;;;;;;;4973296;28;20476;-76
2022/03/30 00:11:10;;;;;;;36.30;26.43;;;;;;;;;;4973759;28;20449;-79
2022/03/30 00:13:39;;;;;;;38.57;24.47;;;;;;;;;;4972496;28;20877;-78
2022/03/30 00:16:07;;;;;;;43.30;25.90;;;;;;;;;;4983491;28;20468;-80
2022/03/30 00:18:34;;;;;;;37.53;25.63;;;;;;;;;;4993211;28;20979;-79
2022/03/30 00:21:02;;;;;;;37.03;25.37;;;;;;;;;;4993148;28;20494;-80
2022/03/30 00:23:29;;;;;;;34.90;24.67;;;;;;;;;;4980961;28;20472;-79
2022/03/30 00:25:56;;;;;;;38.20;25.40;;;;;;;;;;4981653;28;20447;-81
2022/03/30 00:28:27;;;;;;;37.30;24.80;;;;;;;;;;4992068;28;20857;-80
2022/03/30 00:30:56;;;;;;;35.03;26.30;;;;;;;;;;4992053;28;20449;-80
2022/03/30 00:33:23;;;;;;;39.07;26.73;;;;;;;;;;4992299;28;20810;-82
2022/03/30 00:35:50;;;;;;;35.90;25.53;;;;;;;;;;4992695;28;20918;-80
2022/03/30 00:38:17;;;;;;;34.30;23.20;;;;;;;;;;4992670;28;20957;-77
2022/03/30 00:40:44;;;;;;;39.77;25.80;;;;;;;;;;4993939;28;20502;-80
2022/03/30 00:43:12;;;;;;;33.90;24.03;;;;;;;;;;4994042;28;20458;-80
2022/03/30 00:45:40;;;;;;;38.17;25.90;;;;;;;;;;4982364;28;20942;-81
2022/03/30 00:48:09;;;;;;;40.17;27.53;;;;;;;;;;4980040;28;20864;-79
2022/03/30 00:50:38;;;;;;;40.00;26.43;;;;;;;;;;4990351;28;20436;-80
2022/03/30 00:53:05;;;;;;;35.40;24.27;;;;;;;;;;4991972;28;20452;-80
2022/03/30 00:55:32;;;;;;;47.00;27.17;;;;;;;;;;4992085;28;20827;-79
2022/03/30 00:58:00;;;;;;;45.07;27.00;;;;;;;;;;4992329;28;20979;-79
2022/03/30 01:00:27;;;;;;;37.30;25.23;;;;;;;;;;4991628;28;20545;-81
2022/03/30 01:02:55;;;;;;;37.00;25.73;;;;;;;;;;4992726;28;20498;-79
2022/03/30 01:05:24;;;;;;;39.30;25.83;;;;;;;;;;4992722;28;20450;-78
2022/03/30 01:07:51;;;;;;;40.97;25.03;;;;;;;;;;4985468;28;20499;-78
2022/03/30 01:10:19;;;;;;;37.53;24.87;;;;;;;;;;4980289;28;20801;-78
2022/03/30 01:12:48;;;;;;;38.33;25.53;;;;;;;;;;4987918;28;20447;-80
2022/03/30 01:15:15;;;;;;;36.73;25.53;;;;;;;;;;4991544;28;20466;-78
2022/03/30 01:17:43;;;;;;;35.40;23.63;;;;;;;;;;4992356;28;20972;-83
2022/03/30 01:20:11;;;;;;;37.13;25.60;;;;;;;;;;4991990;28;21127;-81
2022/03/30 01:22:53;;;;;;;35.00;24.87;;;;;;;;;;4991852;28;20455;-80
2022/03/30 01:25:23;;;;;;;35.67;24.10;;;;;;;;;;4993224;28;20543;-80
2022/03/30 01:27:50;;;;;;;36.90;24.87;;;;;;;;;;4993560;28;20514;-81
2022/03/30 01:33:02;;;;;;;33.67;22.63;;;;;;;;;;4978851;28;20429;-83
2022/03/30 01:35:30;;;;;;;32.27;22.70;;;;;;;;;;4987283;28;20540;-81
2022/03/30 01:37:57;;;;;;;34.87;25.33;;;;;;;;;;4990926;28;20834;-81
2022/03/30 01:40:25;;;;;;;40.10;24.00;;;;;;;;;;4991292;28;20451;-80
2022/03/30 01:42:53;;;;;;;35.47;25.00;;;;;;;;;;4991299;28;20448;-78
2022/03/30 01:45:20;;;;;;;35.63;24.50;;;;;;;;;;4990895;28;20439;-81
2022/03/30 01:47:51;;;;;;;34.60;24.60;;;;;;;;;;4993039;28;20470;-80
2022/03/30 01:50:18;;;;;;;37.20;24.70;;;;;;;;;;4991658;28;20440;-79
2022/03/30 01:52:46;;;;;;;31.50;21.80;;;;;;;;;;4987030;28;20445;-80
2022/03/30 01:55:13;;;;;;;37.13;24.53;;;;;;;;;;4979449;28;20443;-78
2022/03/30 01:57:42;;;;;;;38.30;24.77;;;;;;;;;;4974415;28;20460;-78
2022/03/30 02:00:12;;;;;;;38.30;25.00;;;;;;;;;;4971583;28;20823;-79
2022/03/30 02:02:39;;;;;;;38.00;24.33;;;;;;;;;;4970183;28;20477;-81
2022/03/30 02:05:06;;;;;;;35.70;26.30;;;;;;;;;;4971763;28;20510;-84
2022/03/30 02:07:34;;;;;;;38.97;25.00;;;;;;;;;;4973315;28;20484;-80
2022/03/30 02:10:02;;;;;;;38.40;25.30;;;;;;;;;;4987750;28;21398;-81
2022/03/30 02:12:29;;;;;;;40.43;27.70;;;;;;;;;;4978893;28;20436;-80
2022/03/30 02:14:58;;;;;;;38.17;26.00;;;;;;;;;;4975137;28;20441;-81
2022/03/30 02:17:26;;;;;;;35.93;23.77;;;;;;;;;;4971706;28;20448;-79
2022/03/30 02:19:54;;;;;;;41.67;26.27;;;;;;;;;;4971451;28;20584;-81
2022/03/30 02:22:22;;;;;;;38.27;25.80;;;;;;;;;;4971358;28;20876;-78
2022/03/30 02:24:50;;;;;;;40.80;25.20;;;;;;;;;;4971994;28;20445;-79
2022/03/30 02:27:18;;;;;;;35.00;24.20;;;;;;;;;;4988518;28;20464;-82
2022/03/30 02:29:46;;;;;;;37.57;24.57;;;;;;;;;;4992791;28;20454;-78
2022/03/30 02:32:14;;;;;;;33.57;22.90;;;;;;;;;;4989430;28;20443;-79
2022/03/30 02:34:41;;;;;;;38.37;24.37;;;;;;;;;;4978871;28;20448;-79
2022/03/30 02:37:09;;;;;;;36.00;25.70;;;;;;;;;;4982988;28;20490;-80
2022/03/30 02:39:36;;;;;;;39.47;25.50;;;;;;;;;;4990159;28;20867;-81
2022/03/30 02:42:05;;;;;;;37.03;25.30;;;;;;;;;;4990581;28;20836;-79
2022/03/30 02:44:32;;;;;;;35.27;23.00;;;;;;;;;;4990721;28;20451;-80
2022/03/30 02:47:00;;;;;;;38.30;25.17;;;;;;;;;;4990567;28;20452;-79
2022/03/30 02:49:29;;;;;;;38.37;26.33;;;;;;;;;;4992876;28;20465;-81
2022/03/30 02:51:56;;;;;;;39.00;24.10;;;;;;;;;;4982171;28;20447;-78
2022/03/30 02:54:25;;;;;;;40.00;24.80;;;;;;;;;;4985633;28;20431;-79
2022/03/30 02:56:52;;;;;;;35.93;22.93;;;;;;;;;;4994123;28;20523;-79
2022/03/30 02:59:19;;;;;;;40.93;24.50;;;;;;;;;;4994022;28;20458;-79
2022/03/30 03:01:48;;;;;;;35.17;23.50;;;;;;;;;;4994123;28;21026;-81
2022/03/30 03:04:16;;;;;;;40.90;26.77;;;;;;;;;;4994471;28;20447;-79
2022/03/30 03:06:44;;;;;;;37.60;24.57;;;;;;;;;;4994823;28;20490;-81
2022/03/30 03:09:11;;;;;;;35.33;24.93;;;;;;;;;;4995970;28;20468;-78
2022/03/30 03:11:38;;;;;;;37.93;24.80;;;;;;;;;;4994865;28;20439;-80
2022/03/30 03:14:07;;;;;;;37.10;25.57;;;;;;;;;;4981987;28;20808;-77
2022/03/30 03:16:35;;;;;;;37.87;25.00;;;;;;;;;;4985123;28;20526;-81
2022/03/30 03:19:02;;;;;;;37.70;23.43;;;;;;;;;;4993547;28;20885;-81
2022/03/30 03:21:30;;;;;;;36.23;25.27;;;;;;;;;;4993471;28;20534;-82
2022/03/30 03:23:58;;;;;;;30.67;22.80;;;;;;;;;;4993881;28;20448;-82
2022/03/30 03:26:25;;;;;;;36.67;23.43;;;;;;;;;;4994171;28;20546;-80
2022/03/30 03:28:52;;;;;;;36.60;24.37;;;;;;;;;;4994265;28;20511;-82
2022/03/30 03:31:20;;;;;;;32.00;23.00;;;;;;;;;;4986083;28;20447;-79
2022/03/30 03:33:47;;;;;;;31.27;22.87;;;;;;;;;;4981641;28;20455;-80
2022/03/30 03:36:14;;;;;;;33.00;24.60;;;;;;;;;;4975222;28;20934;-84
2022/03/30 03:38:41;;;;;;;38.57;24.73;;;;;;;;;;4973898;28;20461;-78
2022/03/30 03:41:10;;;;;;;37.70;26.57;;;;;;;;;;4972736;28;20477;-82
2022/03/30 03:43:38;;;;;;;33.40;22.10;;;;;;;;;;4974351;28;20465;-81
2022/03/30 03:46:06;;;;;;;42.57;26.63;;;;;;;;;;4975243;28;20952;-79
2022/03/30 03:48:34;;;;;;;36.47;24.30;;;;;;;;;;4995045;28;20464;-78
2022/03/30 03:51:01;;;;;;;41.27;26.33;;;;;;;;;;4995299;28;20452;-80
2022/03/30 03:53:28;;;;;;;35.67;23.17;;;;;;;;;;4982655;28;20451;-83
2022/03/30 03:55:57;;;;;;;32.90;22.70;;;;;;;;;;4981195;28;20822;-78
2022/03/30 03:58:26;;;;;;;36.10;25.80;;;;;;;;;;4972232;28;20461;-80
2022/03/30 04:00:53;;;;;;;41.57;25.53;;;;;;;;;;4972823;28;20449;-80
2022/03/30 04:03:20;;;;;;;38.40;25.27;;;;;;;;;;4973520;28;20436;-79
2022/03/30 04:05:47;;;;;;;32.17;22.90;;;;;;;;;;4973923;28;20449;-77
2022/03/30 04:08:15;;;;;;;30.90;22.20;;;;;;;;;;4979542;28;20837;-78
2022/03/30 04:10:42;;;;;;;34.00;23.53;;;;;;;;;;4980877;28;20453;-80
2022/03/30 04:13:09;;;;;;;39.17;26.03;;;;;;;;;;4982408;28;20447;-80
2022/03/30 04:15:38;;;;;;;34.33;24.60;;;;;;;;;;4992013;28;20811;-83
2022/03/30 04:18:07;;;;;;;38.10;24.73;;;;;;;;;;4992269;28;20470;-80
2022/03/30 04:20:34;;;;;;;39.60;24.90;;;;;;;;;;4992585;28;20471;-79
2022/03/30 04:23:02;;;;;;;37.53;25.50;;;;;;;;;;4991514;28;20488;-82
2022/03/30 04:25:29;;;;;;;37.30;24.73;;;;;;;;;;4992774;28;20470;-81
2022/03/30 04:27:56;;;;;;;36.70;26.00;;;;;;;;;;4986573;28;20511;-77
2022/03/30 04:30:24;;;;;;;36.27;23.93;;;;;;;;;;4980458;28;20456;-79
2022/03/30 04:32:53;;;;;;;33.50;23.40;;;;;;;;;;4987674;28;20530;-81
2022/03/30 04:35:24;;;;;;;33.37;22.90;;;;;;;;;;4991875;28;20451;-83
2022/03/30 04:37:52;;;;;;;33.60;23.93;;;;;;;;;;4990626;28;20479;-80
2022/03/30 04:40:19;;;;;;;31.97;22.90;;;;;;;;;;4992246;28;20452;-80
2022/03/30 04:42:46;;;;;;;48.73;27.10;;;;;;;;;;4991708;28;20494;-80
2022/03/30 04:45:13;;;;;;;37.90;24.43;;;;;;;;;;4991213;28;20448;-81
2022/03/30 04:47:40;;;;;;;35.80;25.03;;;;;;;;;;4980123;28;20453;-80
2022/03/30 04:50:09;;;;;;;29.73;22.00;;;;;;;;;;4977146;28;20444;-79
2022/03/30 04:52:37;;;;;;;35.73;24.67;;;;;;;;;;4972790;28;20440;-79
2022/03/30 04:55:05;;;;;;;39.20;25.83;;;;;;;;;;4971648;28;20484;-79
2022/03/30 04:57:32;;;;;;;36.03;23.10;;;;;;;;;;4972092;28;20812;-79
2022/03/30 04:59:59;;;;;;;33.37;22.10;;;;;;;;;;4971412;28;20456;-80
2022/03/30 05:02:27;;;;;;;36.90;25.60;;;;;;;;;;4984618;28;20479;-80
2022/03/30 05:04:55;;;;;;;34.37;24.03;;;;;;;;;;4979868;28;20535;-78
2022/03/30 05:07:24;;;;;;;35.07;24.70;;;;;;;;;;4981599;28;20428;-80
2022/03/30 05:09:51;;;;;;;33.50;24.63;;;;;;;;;;4990838;28;20455;-79
2022/03/30 05:12:18;;;;;;;38.77;27.80;;;;;;;;;;4991178;28;20823;-84
2022/03/30 05:14:46;;;;;;;38.23;25.70;;;;;;;;;;4990412;28;20450;-83
2022/03/30 05:17:13;;;;;;;34.87;24.00;;;;;;;;;;4990042;28;20452;-79
2022/03/30 05:19:40;;;;;;;36.43;25.60;;;;;;;;;;4991316;28;20519;-79
2022/03/30 05:22:07;;;;;;;34.30;22.93;;;;;;;;;;4983224;28;20495;-81
2022/03/30 05:24:36;;;;;;;36.90;23.80;;;;;;;;;;4980085;28;20437;-83
2022/03/30 05:27:03;;;;;;;36.23;22.80;;;;;;;;;;4972837;28;20448;-80
2022/03/30 05:29:30;;;;;;;33.87;20.87;;;;;;;;;;4971084;28;20789;-81
2022/03/30 05:31:58;;;;;;;31.87;21.03;;;;;;;;;;4971695;28;20476;-79
2022/03/30 05:34:25;;;;;;;34.17;24.17;;;;;;;;;;4971868;28;20455;-82
2022/03/30 05:36:56;;;;;;;35.20;24.13;;;;;;;;;;4974355;28;20568;-82
2022/03/30 05:39:24;;;;;;;34.10;24.50;;;;;;;;;;4984311;28;20471;-79
2022/03/30 05:41:53;;;;;;;32.83;22.80;;;;;;;;;;4979312;28;20498;-82
2022/03/30 05:44:20;;;;;;;34.13;22.83;;;;;;;;;;4987911;28;20800;-82
2022/03/30 05:46:48;;;;;;;37.40;23.67;;;;;;;;;;4990876;28;20448;-78
2022/03/30 05:49:16;;;;;;;37.13;24.50;;;;;;;;;;4989361;28;20503;-80
2022/03/30 05:51:44;;;;;;;37.50;23.30;;;;;;;;;;4991803;28;20436;-80
2022/03/30 05:54:11;;;;;;;34.90;22.97;;;;;;;;;;4991516;28;20458;-80
2022/03/30 05:59:21;;;;;;;33.67;23.50;;;;;;;;;;4980344;28;20471;-79
2022/03/30 06:01:48;;;;;;;41.90;25.37;;;;;;;;;;4979130;28;20931;-79
2022/03/30 06:04:15;;;;;;;36.37;25.20;;;;;;;;;;4983642;28;20477;-80
2022/03/30 06:06:43;;;;;;;34.10;24.50;;;;;;;;;;4982244;28;20455;-79
2022/03/30 06:09:10;;;;;;;37.37;23.17;;;;;;;;;;4983827;28;20480;-78
2022/03/30 06:11:37;;;;;;;36.07;24.67;;;;;;;;;;4991557;28;20452;-80
2022/03/30 06:14:04;;;;;;;37.10;25.27;;;;;;;;;;4988769;28;20468;-78
2022/03/30 06:16:33;;;;;;;39.60;25.10;;;;;;;;;;4992974;28;20451;-80
2022/03/30 06:19:00;;;;;;;39.33;25.70;;;;;;;;;;4986333;28;20483;-77
2022/03/30 06:21:27;;;;;;;36.73;23.60;;;;;;;;;;4984175;28;20446;-77
2022/03/30 06:23:55;;;;;;;37.87;25.87;;;;;;;;;;4982063;28;21060;-77
2022/03/30 06:26:22;;;;;;;44.03;26.10;;;;;;;;;;4976718;28;20456;-76
2022/03/30 06:28:49;;;;;;;32.67;22.67;;;;;;;;;;4990736;28;20460;-77
2022/03/30 06:31:17;;;;;;;37.90;25.20;;;;;;;;;;4994596;28;20447;-77
2022/03/30 06:33:46;;;;;;;40.03;25.20;;;;;;;;;;4995031;28;20443;-78
2022/03/30 06:36:13;;;;;;;35.10;24.50;;;;;;;;;;4994400;28;20440;-79
2022/03/30 06:38:41;;;;;;;39.73;27.30;;;;;;;;;;4992497;28;20490;-78
2022/03/30 06:41:09;;;;;;;36.77;25.57;;;;;;;;;;4996255;28;20448;-78
2022/03/30 06:43:38;;;;;;;34.67;23.47;;;;;;;;;;4989208;28;20475;-78
2022/03/30 06:46:05;;;;;;;34.30;24.90;;;;;;;;;;4982527;28;20452;-78
2022/03/30 06:48:34;;;;;;;35.50;24.10;;;;;;;;;;4988012;28;20470;-79
2022/03/30 06:51:02;;;;;;;38.97;25.50;;;;;;;;;;4994352;28;20452;-78
2022/03/30 06:53:29;;;;;;;36.00;25.17;;;;;;;;;;4994475;28;20475;-78
2022/03/30 06:55:56;;;;;;;37.27;26.37;;;;;;;;;;4994446;28;20451;-78
2022/03/30 06:58:24;;;;;;;38.90;26.33;;;;;;;;;;4994899;28;20829;-78
2022/03/30 07:00:51;;;;;;;33.97;25.03;;;;;;;;;;4995198;28;20471;-78
2022/03/30 07:03:19;;;;;;;39.90;24.07;;;;;;;;;;4995867;28;20485;-78
2022/03/30 07:05:46;;;;;;;38.73;26.27;;;;;;;;;;4996929;28;20866;-78
2022/03/30 07:10:55;;;;;;;40.57;26.57;;;;;;;;;;4979274;28;20428;-76
2022/03/30 07:13:23;;;;;;;33.00;22.60;;;;;;;;;;4974396;28;20447;-78
2022/03/30 07:15:50;;;;;;;32.40;23.10;;;;;;;;;;4974158;28;20801;-79
2022/03/30 07:18:19;;;;;;;35.43;23.37;;;;;;;;;;4974137;28;20993;-78
2022/03/30 07:20:47;;;;;;;37.67;25.33;;;;;;;;;;4974070;28;20507;-78
2022/03/30 07:23:16;;;;;;;35.70;25.57;;;;;;;;;;4983937;28;20488;-77
2022/03/30 07:25:43;;;;;;;37.20;25.00;;;;;;;;;;4981937;28;20448;-79
2022/03/30 07:28:11;;;;;;;32.57;23.73;;;;;;;;;;4977611;28;20961;-78
2022/03/30 07:30:38;;;;;;;42.63;24.53;;;;;;;;;;4973591;28;20472;-79
2022/03/30 07:33:07;;;;;;;35.70;25.43;;;;;;;;;;4972974;28;20886;-79
2022/03/30 07:35:34;;;;;;;31.93;24.17;;;;;;;;;;4973266;28;20664;-78
2022/03/30 07:38:02;;;;;;;36.33;24.47;;;;;;;;;;4974238;28;20464;-78
2022/03/30 07:40:31;;;;;;;36.00;25.27;;;;;;;;;;4981456;28;20809;-78
2022/03/30 07:42:59;;;;;;;35.13;23.60;;;;;;;;;;4981126;28;20480;-78
2022/03/30 07:45:27;;;;;;;40.30;26.17;;;;;;;;;;4974355;28;20457;-78
2022/03/30 07:47:54;;;;;;;34.33;21.67;;;;;;;;;;4972338;28;21021;-78
2022/03/30 07:50:21;;;;;;;36.17;25.80;;;;;;;;;;4973648;28;20789;-78
2022/03/30 07:52:48;;;;;;;42.13;23.60;;;;;;;;;;4973088;28;20441;-77
2022/03/30 07:55:16;;;;;;;40.13;25.70;;;;;;;;;;4974901;28;20449;-78
2022/03/30 07:57:44;;;;;;;34.80;24.20;;;;;;;;;;4993752;28;20835;-78
2022/03/30 08:00:26;;;;;;;37.10;25.37;;;;;;;;;;4995017;28;20462;-78
2022/03/30 08:02:54;;;;;;;35.67;23.37;;;;;;;;;;4951445;28;20517;-78
2022/03/30 08:05:24;;;;;;;41.50;27.20;;;;;;;;;;4958238;28;20437;-77
2022/03/30 08:07:51;;;;;;;37.47;25.27;;;;;;;;;;4970260;28;20477;-76
2022/03/30 08:10:19;;;;;;;40.73;25.33;;;;;;;;;;4970368;28;20471;-77
2022/03/30 08:12:48;;;;;;;37.33;25.27;;;;;;;;;;4970591;28;20441;-78
2022/03/30 08:15:15;;;;;;;37.03;25.50;;;;;;;;;;4970936;28;20533;-78
2022/03/30 08:17:43;;;;;;;37.20;23.70;;;;;;;;;;4971309;28;20465;-78
2022/03/30 08:22:25;;;;;;;36.90;24.60;;;;;;;;;;4972676;28;20481;-78
2022/03/30 08:22:58;;;;;;;38.57;25.43;;;;;;;;;;4959506;28;20469;-77
2022/03/30 08:25:25;;;;;;;35.73;24.00;;;;;;;;;;4958415;28;20467;-78
2022/03/30 08:27:54;;;;;;;33.50;22.80;;;;;;;;;;4960006;28;20469;-78
2022/03/30 08:30:21;;;;;;;38.00;24.80;;;;;;;;;;4969793;28;20531;-78
2022/03/30 08:32:50;;;;;;;37.53;24.27;;;;;;;;;;4969938;28;20451;-77
2022/03/30 08:35:17;;;;;;;33.47;21.50;;;;;;;;;;4973248;28;20444;-78
2022/03/30 08:37:45;;;;;;;31.10;22.60;;;;;;;;;;4973349;28;20470;-78
2022/03/30 08:40:12;;;;;;;31.07;21.33;;;;;;;;;;4983268;28;20496;-78
2022/03/30 08:42:40;;;;;;;33.53;21.83;;;;;;;;;;4994503;28;21059;-78
2022/03/30 08:45:10;;;;;;;36.80;21.70;;;;;;;;;;4993675;28;20453;-78
2022/03/30 08:47:37;;;;;;;28.40;19.93;;;;;;;;;;4982768;28;20456;-78
2022/03/30 08:50:06;;;;;;;32.70;21.03;;;;;;;;;;4980205;28;21280;-79
2022/03/30 08:52:33;;;;;;;30.40;20.57;;;;;;;;;;4972783;28;20441;-79
2022/03/30 08:55:00;;;;;;;29.70;21.00;;;;;;;;;;4972815;28;20536;-78
2022/03/30 08:57:28;;;;;;;30.07;20.13;;;;;;;;;;4972124;28;20442;-78
2022/03/30 08:59:59;;;;;;;25.87;20.10;;;;;;;;;;4973082;28;20445;-77
2022/03/30 09:02:35;;;;;;;27.47;19.80;;;;;;;;;;4974653;28;20452;-78
2022/03/30 09:05:18;;;;;;;31.40;19.40;;;;;;;;;;4974300;28;20542;-77
2022/03/30 09:07:48;;;;;;;31.23;21.13;;;;;;;;;;4986688;28;20501;-79
2022/03/30 09:10:16;;;;;;;29.70;19.43;;;;;;;;;;4978041;28;20794;-79
2022/03/30 09:12:45;;;;;;;31.30;20.70;;;;;;;;;;4978162;28;20941;-78
2022/03/30 09:15:13;;;;;;;36.20;20.30;;;;;;;;;;4972079;28;20453;-79
2022/03/30 09:17:42;;;;;;;25.57;18.87;;;;;;;;;;4970022;28;20462;-79
2022/03/30 09:20:16;;;;;;;27.27;19.50;;;;;;;;;;4970988;28;20465;-79
2022/03/30 09:22:44;;;;;;;30.20;19.13;;;;;;;;;;4971571;28;20437;-79
2022/03/30 09:25:12;;;;;;;31.77;21.57;;;;;;;;;;4975153;28;20462;-79
2022/03/30 09:27:41;;;;;;;29.57;19.50;;;;;;;;;;4988977;28;20482;-79
2022/03/30 09:30:09;;;;;;;31.83;20.43;;;;;;;;;;4978382;28;20475;-80
2022/03/30 09:32:36;;;;;;;28.20;19.03;;;;;;;;;;4979345;28;20476;-82
2022/03/30 09:35:05;;;;;;;27.60;18.27;;;;;;;;;;4979304;28;20445;-78
2022/03/30 09:37:33;;;;;;;23.70;16.23;;;;;;;;;;4988768;28;20455;-79
2022/03/30 09:40:10;;;;;;;26.93;16.10;;;;;;;;;;4991247;28;20444;-80
2022/03/30 09:42:37;;;;;;;21.43;15.87;;;;;;;;;;4991247;28;20822;-78
2022/03/30 09:45:05;;;;;;;25.73;16.10;;;;;;;;;;4991910;28;20536;-78
2022/03/30 09:47:38;;;;;;;20.20;14.27;;;;;;;;;;4991236;28;20451;-78
2022/03/30 09:50:08;;;;;;;17.83;12.90;;;;;;;;;;4992998;28;20449;-78
2022/03/30 09:52:35;;;;;;;20.63;12.10;;;;;;;;;;4993077;28;20480;-79
2022/03/30 09:55:03;;;;;;;20.90;12.60;;;;;;;;;;4984893;28;20810;-78
2022/03/30 09:57:40;;;;;;;17.80;13.43;;;;;;;;;;4978454;28;21438;-78
2022/03/30 10:00:08;;;;;;;19.50;14.50;;;;;;;;;;4972957;28;20457;-77
2022/03/30 10:02:37;;;;;;;25.20;15.63;;;;;;;;;;4971541;28;20537;-78
2022/03/30 10:05:05;;;;;;;16.40;12.43;;;;;;;;;;4970295;28;20484;-78
2022/03/30 10:07:36;;;;;;;19.97;13.90;;;;;;;;;;4971934;28;20459;-79
2022/03/30 10:10:05;;;;;;;19.07;12.07;;;;;;;;;;4977543;28;20458;-81
2022/03/30 10:12:32;;;;;;;24.80;13.43;;;;;;;;;;4985122;28;20826;-79
2022/03/30 10:14:59;;;;;;;18.27;11.33;;;;;;;;;;4979666;28;20815;-78
2022/03/30 10:17:37;;;;;;;20.53;12.63;;;;;;;;;;5023398;22;20475;-80
2022/03/30 10:20:05;;;;;;;20.53;11.97;;;;;;;;;;4988291;28;20481;-78
2022/03/30 10:22:49;;;;;;;21.47;14.30;;;;;;;;;;4986223;28;20960;-78
2022/03/30 10:25:21;;;;;;;21.90;13.07;;;;;;;;;;4982073;28;20590;-78
2022/03/30 10:27:52;;;;;;;21.17;13.53;;;;;;;;;;4970533;28;20487;-78
2022/03/30 10:30:24;;;;;;;18.10;12.90;;;;;;;;;;4984726;28;21310;-78
2022/03/30 10:32:55;;;;;;;20.03;13.80;;;;;;;;;;4982391;28;20801;-81
2022/03/30 10:35:22;;;;;;;24.00;15.53;;;;;;;;;;4972403;28;20472;-79
2022/03/30 10:38:01;;;;;;;26.27;14.37;;;;;;;;;;4971499;28;20689;-79
2022/03/30 10:40:29;;;;;;;22.53;15.43;;;;;;;;;;4972605;28;20892;-79
2022/03/30 10:43:00;;;;;;;21.33;15.30;;;;;;;;;;4985591;28;20484;-79
2022/03/30 10:45:30;;;;;;;21.60;15.17;;;;;;;;;;4983909;28;20519;-78
2022/03/30 10:48:13;;;;;;;26.47;17.13;;;;;;;;;;4967864;28;20476;-79
2022/03/30 10:50:41;;;;;;;19.43;13.83;;;;;;;;;;4967143;28;20943;-79
2022/03/30 10:53:23;;;;;;;20.40;16.13;;;;;;;;;;4977100;28;20787;-78
2022/03/30 10:55:52;;;;;;;21.80;14.23;;;;;;;;;;4981672;28;20444;-80
2022/03/30 10:58:21;;;;;;;21.30;14.20;;;;;;;;;;4985447;28;20455;-78
2022/03/30 11:00:49;;;;;;;23.93;16.47;;;;;;;;;;4978236;28;20484;-80
2022/03/30 11:03:17;;;;;;;26.53;15.17;;;;;;;;;;4977084;28;20432;-80
2022/03/30 11:05:45;;;;;;;19.10;13.83;;;;;;;;;;4988509;28;20452;-80
2022/03/30 11:17:15;;;;;;;23.37;14.77;;;;;;;;;;4960522;28;20488;-80
2022/03/30 11:19:57;;;;;;;22.60;14.73;;;;;;;;;;4990652;28;20562;-77
2022/03/30 11:22:26;;;;;;;23.57;14.97;;;;;;;;;;4989990;28;20444;-81
2022/03/30 11:25:06;;;;;;;23.70;15.50;;;;;;;;;;4974836;28;20523;-80
2022/03/30 11:27:34;;;;;;;21.03;15.20;;;;;;;;;;4981802;28;20492;-81
2022/03/30 11:30:03;;;;;;;23.23;15.10;;;;;;;;;;4975694;28;20507;-81
2022/03/30 11:32:35;;;;;;;22.93;14.50;;;;;;;;;;4975945;28;20515;-80
2022/03/30 11:35:03;;;;;;;20.60;14.10;;;;;;;;;;5002201;28;20432;-79
2022/03/30 11:37:31;;;;;;;25.60;15.83;;;;;;;;;;4990976;28;20894;-81
2022/03/30 11:40:04;;;;;;;22.90;15.40;;;;;;;;;;4992015;28;20448;-82
2022/03/30 11:42:31;;;;;;;21.80;14.20;;;;;;;;;;4993171;28;20444;-79
2022/03/30 11:47:43;;;;;;;23.40;15.30;;;;;;;;;;4992607;28;20505;-80
2022/03/30 11:50:10;;;;;;;20.33;13.23;;;;;;;;;;4985108;28;20458;-82
2022/03/30 11:52:38;;;;;;;22.83;14.37;;;;;;;;;;4976219;28;20452;-82
2022/03/30 11:55:07;;;;;;;20.90;14.00;;;;;;;;;;4976098;28;20441;-79
2022/03/30 11:57:38;;;;;;;19.03;14.23;;;;;;;;;;4985708;28;20519;-81
2022/03/30 12:00:09;;;;;;;20.67;14.00;;;;;;;;;;4990912;28;20435;-81
2022/03/30 12:02:39;;;;;;;20.83;14.50;;;;;;;;;;4990634;28;20447;-80
2022/03/30 12:05:08;;;;;;;24.03;14.93;;;;;;;;;;4992353;28;20488;-80
2022/03/30 12:07:37;;;;;;;20.50;13.77;;;;;;;;;;4990377;28;20522;-80
2022/03/30 12:10:10;;;;;;;22.70;13.53;;;;;;;;;;4990378;28;20436;-80
2022/03/30 12:12:40;;;;;;;18.47;13.43;;;;;;;;;;4983380;28;20460;-80
2022/03/30 12:15:08;;;;;;;18.33;12.03;;;;;;;;;;4974237;28;20524;-80
2022/03/30 12:17:36;;;;;;;14.70;12.03;;;;;;;;;;4974254;28;20468;-80
2022/03/30 12:20:05;;;;;;;16.87;12.13;;;;;;;;;;4983910;28;20432;-79
2022/03/30 12:22:34;;;;;;;18.40;12.97;;;;;;;;;;4988317;28;20471;-78
2022/03/30 12:25:03;;;;;;;16.80;12.17;;;;;;;;;;4989623;28;20476;-81
2022/03/30 12:27:44;;;;;;;19.90;13.70;;;;;;;;;;4990005;28;20512;-80
2022/03/30 12:30:12;;;;;;;21.47;14.50;;;;;;;;;;4988819;28;20440;-79
2022/03/30 12:35:56;;;;;;;17.90;13.90;;;;;;;;;;4935409;29;20971;-79
2022/03/30 12:41:32;;;;;;;17.33;12.00;;;;;;;;;;4932709;29;20442;-77
2022/03/30 12:44:00;;;;;;;20.50;14.70;;;;;;;;;;4955796;28;20483;-80
2022/03/30 12:46:29;;;;;;;20.63;14.70;;;;;;;;;;4973874;28;20441;-82
2022/03/30 12:49:04;;;;;;;15.40;13.20;;;;;;;;;;4974425;28;20477;-77
2022/03/30 12:51:33;;;;;;;21.17;14.47;;;;;;;;;;4974424;28;20445;-81
2022/03/30 12:54:01;;;;;;;19.60;13.30;;;;;;;;;;4993175;28;20464;-79
2022/03/30 12:56:28;;;;;;;19.13;13.30;;;;;;;;;;4981520;28;20480;-81
2022/03/30 12:58:58;;;;;;;16.60;12.27;;;;;;;;;;4986543;28;20473;-78
2022/03/30 13:01:30;;;;;;;19.47;13.10;;;;;;;;;;4988550;28;20447;-79
2022/03/30 13:03:57;;;;;;;18.83;12.83;;;;;;;;;;4989702;28;20478;-80
2022/03/30 13:06:25;;;;;;;21.90;12.50;;;;;;;;;;4991355;28;20544;-78
2022/03/30 13:09:07;;;;;;;20.77;12.70;;;;;;;;;;4978801;28;20746;-80
2022/03/30 13:11:34;;;;;;;14.13;11.80;;;;;;;;;;4972312;28;20459;-79
2022/03/30 13:14:04;;;;;;;18.27;11.03;;;;;;;;;;4973166;28;20510;-75
2022/03/30 13:16:31;;;;;;;18.50;11.20;;;;;;;;;;4973467;28;20553;-75
2022/03/30 13:19:01;;;;;;;22.50;12.60;;;;;;;;;;4974000;28;20476;-75
2022/03/30 13:21:36;;;;;;;13.70;10.47;;;;;;;;;;4974216;28;20448;-77
2022/03/30 13:24:10;;;;;;;15.33;10.60;;;;;;;;;;4988238;28;20452;-77
2022/03/30 13:26:38;;;;;;;13.10;10.30;;;;;;;;;;4988225;28;20802;-77
2022/03/30 13:29:09;;;;;;;17.80;11.17;;;;;;;;;;4977349;28;20470;-79
2022/03/30 13:31:39;;;;;;;13.10;10.07;;;;;;;;;;4970869;28;20446;-78
2022/03/30 13:34:07;;;;;;;14.43;10.50;;;;;;;;;;4972250;28;20486;-78
2022/03/30 13:36:34;;;;;;;14.10;11.70;;;;;;;;;;4972116;28;20799;-78
2022/03/30 13:39:02;;;;;;;17.93;10.60;;;;;;;;;;4972634;28;20482;-79
2022/03/30 13:41:29;;;;;;;16.73;10.77;;;;;;;;;;4979602;28;22003;-77
2022/03/30 13:43:57;;;;;;;14.23;10.50;;;;;;;;;;4988447;28;20451;-81
2022/03/30 13:46:25;;;;;;;13.00;10.40;;;;;;;;;;4981802;28;20547;-78
2022/03/30 13:48:52;;;;;;;16.30;10.93;;;;;;;;;;4971633;28;20465;-80
2022/03/30 13:51:20;;;;;;;13.23;9.80;;;;;;;;;;4971538;28;20436;-78
2022/03/30 13:53:47;;;;;;;16.33;11.27;;;;;;;;;;4972674;28;20441;-77
2022/03/30 13:56:15;;;;;;;13.93;10.37;;;;;;;;;;4971821;28;20419;-77
2022/03/30 13:58:42;;;;;;;18.80;11.17;;;;;;;;;;4973981;28;20531;-77
2022/03/30 14:01:09;;;;;;;13.13;9.67;;;;;;;;;;4973398;28;20431;-78
2022/03/30 14:03:38;;;;;;;13.73;10.43;;;;;;;;;;4974938;28;20841;-78
2022/03/30 14:06:06;;;;;;;13.10;9.00;;;;;;;;;;4988273;28;20486;-78
2022/03/30 14:08:33;;;;;;;13.90;10.23;;;;;;;;;;4989346;28;20537;-80
2022/03/30 14:11:01;;;;;;;12.47;9.00;;;;;;;;;;4981552;28;20455;-79
2022/03/30 14:13:28;;;;;;;16.30;10.53;;;;;;;;;;4971322;28;20449;-79
2022/03/30 14:15:56;;;;;;;15.20;10.60;;;;;;;;;;4971497;28;20484;-82
2022/03/30 14:18:24;;;;;;;13.53;8.63;;;;;;;;;;4971250;28;21031;-77
2022/03/30 14:21:04;;;;;;;12.90;10.40;;;;;;;;;;4972522;28;20805;-80
2022/03/30 14:23:31;;;;;;;16.93;11.60;;;;;;;;;;4972860;28;20798;-80
2022/03/30 14:25:59;;;;;;;12.80;9.40;;;;;;;;;;4973202;28;20472;-79
2022/03/30 14:28:26;;;;;;;11.50;8.77;;;;;;;;;;4985210;28;20464;-79
2022/03/30 14:30:53;;;;;;;17.50;12.60;;;;;;;;;;4988895;28;20937;-76
2022/03/30 14:33:21;;;;;;;12.03;9.80;;;;;;;;;;4990533;28;20459;-80
2022/03/30 14:35:48;;;;;;;12.90;10.83;;;;;;;;;;4983319;28;20445;-79
2022/03/30 14:38:17;;;;;;;11.87;10.00;;;;;;;;;;4971081;28;20476;-77
2022/03/30 14:40:45;;;;;;;14.67;10.27;;;;;;;;;;4971536;28;20445;-85
2022/03/30 14:43:12;;;;;;;10.47;9.30;;;;;;;;;;4973112;28;20468;-86
2022/03/30 14:45:39;;;;;;;14.20;9.97;;;;;;;;;;4976631;28;20506;-84
2022/03/30 14:48:07;;;;;;;16.30;11.20;;;;;;;;;;4976885;28;20579;-79
2022/03/30 14:50:34;;;;;;;15.30;10.47;;;;;;;;;;4983472;28;20991;-83
2022/03/30 14:53:02;;;;;;;10.10;8.60;;;;;;;;;;4991893;28;20458;-83